»·PEaware :: N645BJ KSNA-KLAS

N645BJ :: KSNA-KLAS

FLIGHT INFORMATION

Flight Status: Arrived
Operator: Privately registered:
United States
More flights under this callsign
Pilot: Daniel R. (17770)
Aircraft: BOEING 757-200
(B752)
More flights by this aircraft type
Origin: KSNA John Wayne-Orange Co
United States
Destination: KLAS McCarran Intl
United States
More flights between these airports :: More routes between these airports
Route: +FINZZ2 MISEN KEPEC6
File this flight plan on PilotEdge
Remarks:
Altitude:
(Current/Filed)
28,000ft
Speed:
(Current/Filed)
457kts
Departed: 02-Dec-18 05:53 PM
Arrived: 02-Dec-18 06:42 PM
Distance/Time
Traveled:
196nm/0:49
Distance/Time
To Go:
Arrived

Flight Plot

Page will automatically refresh every two minutes.

Flight plan parsing failed; only flown route is shown


Map Options




Map Legend


Flown Route
Filed Route
Departure Airport
Arrival Airport
Navaid (VOR, NDB)
Fix

Horizontal Profiles

Position Reports

Time Latitude Longitude Heading Altitude Ground
Speed
02-Dec-18 17:27 33.671916 -117.867090 176 68ft 4kts
02-Dec-18 17:28 33.671736 -117.867390 298 68ft 0kts
02-Dec-18 17:29 33.671736 -117.867390 298 68ft 0kts
02-Dec-18 17:30 33.671736 -117.867390 298 68ft 0kts
02-Dec-18 17:31 33.671736 -117.867390 298 68ft 0kts
02-Dec-18 17:32 33.671736 -117.867390 298 68ft 0kts
02-Dec-18 17:33 33.671736 -117.867390 298 68ft 0kts
02-Dec-18 17:34 33.671736 -117.867390 298 68ft 0kts
02-Dec-18 17:35 33.671736 -117.867390 298 68ft 0kts
02-Dec-18 17:36 33.671736 -117.867390 298 68ft 0kts
02-Dec-18 17:37 33.671736 -117.867390 298 68ft 0kts
02-Dec-18 17:38 33.671736 -117.867390 298 68ft 0kts
02-Dec-18 17:39 33.671736 -117.867390 298 68ft 0kts
02-Dec-18 17:40 33.671736 -117.867390 298 68ft 0kts
02-Dec-18 17:41 33.671736 -117.867390 298 68ft 0kts
02-Dec-18 17:42 33.671736 -117.867390 298 68ft 0kts
02-Dec-18 17:43 33.671736 -117.867390 298 68ft 0kts
02-Dec-18 17:44 33.671736 -117.867390 298 68ft 0kts
02-Dec-18 17:45 33.671736 -117.867390 298 68ft 0kts
02-Dec-18 17:46 33.671736 -117.867390 297 68ft 0kts
02-Dec-18 17:47 33.671736 -117.867390 298 68ft 0kts
02-Dec-18 17:48 33.671736 -117.867390 298 68ft 0kts
02-Dec-18 17:49 33.671736 -117.867390 298 68ft 0kts
02-Dec-18 17:50 33.672499 -117.867737 19 68ft 16kts
02-Dec-18 17:51 33.676837 -117.864729 27 58ft 30kts
02-Dec-18 17:52 33.680756 -117.863301 299 68ft 7kts
02-Dec-18 17:53 33.681155 -117.864206 297 68ft 0kts
02-Dec-18 17:54 33.681284 -117.864519 297 68ft 10kts
02-Dec-18 17:55 33.681094 -117.865429 208 68ft 0kts
02-Dec-18 17:56 33.670416 -117.872150 207 190ft 157kts
02-Dec-18 17:57 33.625143 -117.891765 190 2637ft 222kts
02-Dec-18 17:58 33.559364 -117.912802 228 5014ft 247kts
02-Dec-18 17:59 33.508651 -117.970312 231 7204ft 259kts
02-Dec-18 18:00 33.512030 -118.041508 312 8005ft 238kts
02-Dec-18 18:01 33.558906 -118.102149 315 10792ft 283kts
02-Dec-18 18:02 33.636196 -118.111158 21 13786ft 342kts
02-Dec-18 18:03 33.706236 -118.062772 19 16261ft 356kts
02-Dec-18 18:04 33.780719 -118.018382 18 16993ft 362kts
02-Dec-18 18:05 33.855220 -117.974760 17 19157ft 375kts
02-Dec-18 18:06 33.938087 -117.915901 29 20804ft 417kts
02-Dec-18 18:07 34.024453 -117.836878 29 22866ft 435kts
02-Dec-18 18:08 34.116191 -117.737243 43 25351ft 456kts
02-Dec-18 18:09 34.199975 -117.613443 42 27103ft 455kts
02-Dec-18 18:10 34.290186 -117.479072 42 27836ft 452kts
02-Dec-18 18:11 34.382383 -117.341265 42 28131ft 449kts
02-Dec-18 18:12 34.459962 -117.224796 41 30003ft 443kts
02-Dec-18 18:13 34.537885 -117.107692 41 31137ft 461kts
02-Dec-18 18:14 34.621608 -116.985500 40 31131ft 473kts
02-Dec-18 18:15 34.705836 -116.862466 40 31137ft 473kts
02-Dec-18 18:16 34.789798 -116.739377 39 30696ft 476kts
02-Dec-18 18:17 34.877296 -116.621618 27 28615ft 456kts
02-Dec-18 18:18 34.975272 -116.527397 27 26666ft 444kts
02-Dec-18 18:19 35.070459 -116.434936 28 24751ft 431kts
02-Dec-18 18:20 35.156481 -116.336089 37 23029ft 428kts
02-Dec-18 18:21 35.237921 -116.234053 37 21374ft 413kts
02-Dec-18 18:22 35.316446 -116.135305 36 19794ft 398kts
02-Dec-18 18:23 35.392114 -116.039883 36 18274ft 385kts
02-Dec-18 18:24 35.465236 -115.947404 36 16747ft 372kts
02-Dec-18 18:25 35.536181 -115.857432 36 15297ft 360kts
02-Dec-18 18:26 35.604646 -115.770372 37 13904ft 349kts
02-Dec-18 18:27 35.649405 -115.668239 81 13132ft 347kts
02-Dec-18 18:28 35.652544 -115.552127 81 13129ft 339kts
02-Dec-18 18:29 35.667376 -115.440835 61 12955ft 311kts
02-Dec-18 18:30 35.691669 -115.352354 62 12027ft 254kts
02-Dec-18 18:31 35.712011 -115.274508 66 9991ft 232kts
02-Dec-18 18:32 35.737201 -115.203965 61 7954ft 223kts
02-Dec-18 18:33 35.764493 -115.137199 61 7027ft 217kts
02-Dec-18 18:34 35.791711 -115.070338 61 7026ft 218kts
02-Dec-18 18:35 35.833814 -115.033421 333 7016ft 209kts
02-Dec-18 18:36 35.859616 -115.097325 290 7026ft 211kts
02-Dec-18 18:37 35.875982 -115.167642 287 6969ft 214kts
02-Dec-18 18:38 35.892790 -115.237948 288 6560ft 210kts
02-Dec-18 18:39 35.933490 -115.250893 23 5305ft 155kts
02-Dec-18 18:40 35.971583 -115.229590 23 4764ft 149kts
02-Dec-18 18:41 36.008521 -115.208511 24 3885ft 149kts
02-Dec-18 18:42 36.037368 -115.192052 24 3185ft 144kts
02-Dec-18 18:43 36.065998 -115.175779 23 2504ft 135kts
02-Dec-18 18:44 36.088915 -115.162613 24 2135ft 42kts
02-Dec-18 18:45 36.094196 -115.160874 293 2115ft 0kts
02-Dec-18 18:46 36.094196 -115.160874 293 2115ft 0kts
02-Dec-18 18:47 36.093120 -115.162575 204 2122ft 19kts
02-Dec-18 18:48 36.086126 -115.166583 205 2155ft 28kts
02-Dec-18 18:49 36.081546 -115.170369 273 2175ft 10kts
02-Dec-18 18:50 36.080780 -115.171021 113 2177ft 3kts
02-Dec-18 18:51 36.080778 -115.171014 113 2177ft 0kts
02-Dec-18 18:52 36.080778 -115.171014 113 2177ft 0kts
02-Dec-18 18:53 36.080778 -115.171014 113 2177ft 0kts
02-Dec-18 18:54 36.080778 -115.171014 113 2177ft 0kts

Navigation Log

Ident Type
Flight plan parsing failed, navigation log unavailable